createdAt,value
2019-05-30T00:00:47.078Z,64.50
2019-05-30T00:02:50.332Z,64.50
2019-05-30T00:04:54.090Z,64.50
2019-05-30T00:06:58.646Z,64.40
2019-05-30T00:09:03.227Z,64.40
2019-05-30T00:11:06.709Z,64.40
2019-05-30T00:13:09.984Z,64.50
2019-05-30T00:15:13.290Z,64.50
2019-05-30T00:17:16.542Z,64.70
2019-05-30T00:19:19.796Z,64.90
2019-05-30T00:21:23.068Z,64.70
2019-05-30T00:23:26.376Z,65.00
2019-05-30T00:25:29.622Z,65.00
2019-05-30T00:27:33.813Z,64.90
2019-05-30T00:29:37.070Z,64.80
2019-05-30T00:31:40.350Z,64.50
2019-05-30T00:33:43.689Z,64.50
2019-05-30T00:35:47.003Z,64.70
2019-05-30T00:37:50.274Z,64.80
2019-05-30T00:39:53.549Z,64.90
2019-05-30T00:41:57.783Z,64.40
2019-05-30T00:44:04.351Z,64.50
2019-05-30T00:46:07.784Z,64.40
2019-05-30T00:48:11.037Z,64.60
2019-05-30T00:50:14.320Z,64.70
2019-05-30T00:52:17.560Z,64.70
2019-05-30T00:54:20.816Z,64.80
2019-05-30T00:56:24.070Z,65.10
2019-05-30T00:58:27.312Z,65.30
2019-05-30T01:00:42.646Z,65.40
2019-05-30T01:02:35.585Z,65.20
2019-05-30T01:04:38.872Z,65.10
2019-05-30T01:06:42.203Z,65.10
2019-05-30T01:08:45.483Z,65.10
2019-05-30T01:10:48.759Z,65.40
2019-05-30T01:12:52.072Z,66.20
2019-05-30T01:14:55.344Z,65.40
2019-05-30T01:16:59.017Z,65.80
2019-05-30T01:19:03.226Z,65.30
2019-05-30T01:21:07.430Z,65.20
2019-05-30T01:23:10.848Z,65.30
2019-05-30T01:25:14.100Z,65.50
2019-05-30T01:27:17.386Z,65.40
2019-05-30T01:29:20.649Z,65.60
2019-05-30T01:31:23.933Z,65.40
2019-05-30T01:33:27.203Z,65.30
2019-05-30T01:35:30.462Z,65.40
2019-05-30T01:37:33.696Z,65.60
2019-05-30T01:39:36.953Z,65.80
2019-05-30T01:41:40.206Z,66.10
2019-05-30T01:43:43.460Z,66.10
2019-05-30T01:45:46.708Z,65.90
2019-05-30T01:47:50.013Z,65.80
2019-05-30T01:49:53.277Z,66.60
2019-05-30T01:51:56.602Z,65.80
2019-05-30T01:54:00.506Z,66.00
2019-05-30T01:56:04.790Z,65.90
2019-05-30T01:58:09.094Z,66.00
2019-05-30T02:00:20.819Z,66.00
2019-05-30T02:02:19.703Z,66.00
2019-05-30T02:04:22.954Z,65.90
2019-05-30T02:06:26.204Z,65.80
2019-05-30T02:08:29.490Z,65.70
2019-05-30T02:10:32.784Z,65.90
2019-05-30T02:12:36.065Z,66.00
2019-05-30T02:14:39.331Z,66.10
2019-05-30T02:16:42.658Z,66.10
2019-05-30T02:18:45.918Z,66.40
2019-05-30T02:20:49.141Z,66.30
2019-05-30T02:22:52.413Z,66.30
2019-05-30T02:24:56.039Z,66.40
2019-05-30T02:27:00.053Z,66.60
2019-05-30T02:29:04.188Z,66.60
2019-05-30T02:31:09.405Z,66.60
2019-05-30T02:33:13.022Z,66.40
2019-05-30T02:35:16.466Z,66.50
2019-05-30T02:37:19.727Z,66.50
2019-05-30T02:39:22.962Z,66.40
2019-05-30T02:41:26.202Z,67.20
2019-05-30T02:43:29.465Z,66.50
2019-05-30T02:45:32.726Z,66.40
2019-05-30T02:47:35.969Z,66.50
2019-05-30T02:49:39.311Z,66.30
2019-05-30T02:51:42.601Z,66.30
2019-05-30T02:53:45.847Z,67.00
2019-05-30T02:55:49.079Z,66.10
2019-05-30T02:57:52.330Z,66.40
2019-05-30T02:59:55.579Z,66.70
2019-05-30T03:02:01.643Z,66.40
2019-05-30T03:04:04.603Z,66.50
2019-05-30T03:06:10.839Z,66.50
2019-05-30T03:08:14.617Z,66.40
2019-05-30T03:10:18.093Z,66.50
2019-05-30T03:12:21.322Z,66.50
2019-05-30T03:14:24.601Z,66.50
2019-05-30T03:16:27.829Z,66.50
2019-05-30T03:18:31.095Z,66.50
2019-05-30T03:20:34.416Z,66.40
2019-05-30T03:22:37.676Z,66.80
2019-05-30T03:24:40.930Z,66.90
2019-05-30T03:26:44.191Z,66.80
2019-05-30T03:28:47.518Z,67.00
2019-05-30T03:30:50.839Z,66.90
2019-05-30T03:33:24.628Z,67.00
2019-05-30T03:34:59.053Z,67.20
2019-05-30T03:37:04.969Z,67.20
2019-05-30T03:39:07.830Z,67.10
2019-05-30T03:41:12.326Z,67.20
2019-05-30T03:43:16.167Z,67.10
2019-05-30T03:45:19.710Z,67.20
2019-05-30T03:47:22.949Z,67.20
2019-05-30T03:49:28.735Z,67.20
2019-05-30T03:51:32.047Z,67.30
2019-05-30T03:53:35.562Z,67.10
2019-05-30T03:55:38.820Z,67.20
2019-05-30T03:57:48.031Z,67.50
2019-05-30T04:00:13.651Z,67.80
2019-05-30T04:02:55.123Z,67.70
2019-05-30T04:05:00.727Z,67.40
2019-05-30T04:07:06.947Z,67.70
2019-05-30T04:09:12.958Z,67.80
2019-05-30T04:11:19.721Z,67.60
2019-05-30T04:13:32.316Z,67.80
2019-05-30T04:15:36.021Z,67.90
2019-05-30T04:17:39.273Z,67.70
2019-05-30T04:19:42.545Z,68.10
2019-05-30T04:21:45.795Z,68.10
2019-05-30T04:23:49.030Z,68.20
2019-05-30T04:25:52.300Z,68.00
2019-05-30T04:27:55.558Z,67.90
2019-05-30T04:29:58.859Z,68.10
2019-05-30T04:32:02.177Z,68.40
2019-05-30T04:34:05.413Z,68.20
2019-05-30T04:36:10.404Z,68.20
2019-05-30T04:38:14.669Z,69.00
2019-05-30T04:40:19.639Z,69.00
2019-05-30T04:42:23.155Z,68.00
2019-05-30T04:44:26.389Z,68.10
2019-05-30T04:46:29.636Z,68.20
2019-05-30T04:48:32.862Z,68.30
2019-05-30T04:50:36.100Z,68.30
2019-05-30T04:52:39.349Z,68.30
2019-05-30T04:54:42.579Z,68.40
2019-05-30T04:56:45.845Z,68.50
2019-05-30T04:58:49.087Z,68.80
2019-05-30T05:00:52.323Z,68.90
2019-05-30T05:02:55.594Z,68.90
2019-05-30T05:04:58.839Z,68.80
2019-05-30T05:07:02.101Z,68.70
2019-05-30T05:09:07.278Z,68.70
2019-05-30T05:11:14.098Z,68.70
2019-05-30T05:13:16.269Z,68.70
2019-05-30T05:15:20.698Z,68.80
2019-05-30T05:17:24.049Z,68.80
2019-05-30T05:19:27.306Z,68.70
2019-05-30T05:21:30.544Z,68.80
2019-05-30T05:23:33.801Z,68.90
2019-05-30T05:25:37.387Z,68.80
2019-05-30T05:27:40.691Z,69.10
2019-05-30T05:29:43.931Z,69.10
2019-05-30T05:31:47.153Z,69.10
2019-05-30T05:33:56.545Z,69.10
2019-05-30T05:35:55.557Z,69.00
2019-05-30T05:37:58.816Z,69.10
2019-05-30T05:40:02.045Z,69.10
2019-05-30T05:42:05.293Z,69.10
2019-05-30T05:44:08.555Z,69.10
2019-05-30T05:46:11.880Z,69.20
2019-05-30T05:48:16.414Z,69.30
2019-05-30T05:50:20.451Z,69.20
2019-05-30T05:52:24.884Z,69.30
2019-05-30T05:54:29.230Z,69.40
2019-05-30T05:56:32.612Z,69.40
2019-05-30T05:58:35.854Z,69.30
2019-05-30T06:00:39.107Z,69.50
2019-05-30T06:02:42.356Z,69.60
2019-05-30T06:04:45.603Z,69.60
2019-05-30T06:06:48.847Z,69.60
2019-05-30T06:08:52.081Z,69.60
2019-05-30T06:10:55.353Z,69.70
2019-05-30T06:12:58.633Z,69.60
2019-05-30T06:15:02.160Z,69.50
2019-05-30T06:17:05.862Z,69.50
2019-05-30T06:19:09.113Z,69.40
2019-05-30T06:21:12.348Z,70.40
2019-05-30T06:23:17.236Z,69.50
2019-05-30T06:25:24.011Z,69.60
2019-05-30T06:27:26.136Z,69.80
2019-05-30T06:29:29.459Z,69.50
2019-05-30T06:31:32.747Z,69.20
2019-05-30T06:33:36.059Z,69.20
2019-05-30T06:35:39.343Z,69.00
2019-05-30T06:37:42.617Z,69.00
2019-05-30T06:39:45.978Z,69.00
2019-05-30T06:41:53.653Z,68.10
2019-05-30T06:43:56.897Z,68.70
2019-05-30T06:46:00.149Z,68.30
2019-05-30T06:48:05.035Z,68.40
2019-05-30T06:50:13.016Z,68.50
2019-05-30T06:52:16.357Z,68.40
2019-05-30T06:54:21.353Z,69.30
2019-05-30T06:56:25.273Z,68.40
2019-05-30T06:58:47.356Z,68.20
2019-05-30T07:00:35.290Z,68.20
2019-05-30T07:02:38.679Z,68.30
2019-05-30T07:04:51.716Z,67.90
2019-05-30T07:06:47.900Z,68.10
2019-05-30T07:08:51.392Z,68.10
2019-05-30T07:10:54.723Z,68.10
2019-05-30T07:12:57.972Z,68.20
2019-05-30T07:15:01.221Z,67.90
2019-05-30T07:17:04.541Z,67.80
2019-05-30T07:19:07.805Z,67.40
2019-05-30T07:21:11.086Z,67.20
2019-05-30T07:23:14.408Z,67.40
2019-05-30T07:25:17.736Z,67.50
2019-05-30T07:27:21.012Z,67.30
2019-05-30T07:29:24.247Z,67.30
2019-05-30T07:31:28.091Z,67.20
2019-05-30T07:33:32.916Z,66.70
2019-05-30T07:35:36.497Z,66.70
2019-05-30T07:37:39.749Z,66.50
2019-05-30T07:39:43.020Z,66.50
2019-05-30T07:42:04.883Z,66.10
2019-05-30T07:43:51.355Z,66.30
2019-05-30T07:45:58.356Z,65.60
2019-05-30T07:47:59.610Z,65.10
2019-05-30T07:50:02.933Z,66.10
2019-05-30T07:52:06.283Z,64.60
2019-05-30T07:54:09.533Z,64.30
2019-05-30T07:56:12.805Z,64.20
2019-05-30T07:58:16.075Z,64.20
2019-05-30T08:00:19.325Z,64.30
2019-05-30T08:02:22.589Z,63.90
2019-05-30T08:04:25.857Z,63.90
2019-05-30T08:06:29.528Z,63.90
2019-05-30T08:08:33.929Z,63.80
2019-05-30T08:10:38.170Z,63.80
2019-05-30T08:12:41.710Z,63.40
2019-05-30T08:14:45.008Z,63.00
2019-05-30T08:16:48.277Z,62.80
2019-05-30T08:18:51.518Z,62.80
2019-05-30T08:20:54.771Z,61.90
2019-05-30T08:22:58.113Z,62.00
2019-05-30T08:25:01.386Z,61.50
2019-05-30T08:27:05.945Z,61.30
2019-05-30T08:29:09.193Z,61.10
2019-05-30T08:31:12.461Z,60.90
2019-05-30T08:33:15.750Z,60.50
2019-05-30T08:35:19.064Z,60.40
2019-05-30T08:37:22.404Z,60.00
2019-05-30T08:39:25.755Z,59.40
2019-05-30T08:41:29.152Z,59.30
2019-05-30T08:43:33.397Z,59.50
2019-05-30T08:45:37.646Z,59.70
2019-05-30T08:47:41.282Z,59.60
2019-05-30T08:49:44.532Z,59.60
2019-05-30T08:51:47.773Z,59.50
2019-05-30T08:53:51.037Z,59.20
2019-05-30T08:55:54.297Z,59.00
2019-05-30T08:57:57.554Z,59.30
2019-05-30T09:00:00.861Z,59.20
2019-05-30T09:02:04.134Z,58.90
2019-05-30T09:04:07.416Z,58.90
2019-05-30T09:06:10.755Z,58.70
2019-05-30T09:08:14.035Z,58.70
2019-05-30T09:10:17.318Z,58.40
2019-05-30T09:12:20.600Z,58.30
2019-05-30T09:14:23.935Z,57.60
2019-05-30T09:16:27.291Z,57.50
2019-05-30T09:18:30.555Z,57.20
2019-05-30T09:20:33.847Z,56.80
2019-05-30T09:22:38.124Z,57.00
2019-05-30T09:24:42.283Z,57.10
2019-05-30T09:26:48.734Z,56.90
2019-05-30T09:28:50.702Z,55.80
2019-05-30T09:30:54.014Z,56.00
2019-05-30T09:32:57.262Z,55.60
2019-05-30T09:35:00.545Z,55.60
2019-05-30T09:37:03.801Z,55.60
2019-05-30T09:39:07.985Z,55.20
2019-05-30T09:41:12.267Z,54.80
2019-05-30T09:43:15.525Z,54.70
2019-05-30T09:45:18.811Z,54.50
2019-05-30T09:47:22.139Z,53.80
2019-05-30T09:49:25.414Z,53.80
2019-05-30T09:51:28.676Z,53.20
2019-05-30T09:53:31.914Z,53.70
2019-05-30T09:55:35.195Z,53.40
2019-05-30T09:57:38.512Z,53.50
2019-05-30T09:59:43.204Z,52.90
2019-05-30T10:01:47.985Z,52.70
2019-05-30T10:03:52.327Z,52.00
2019-05-30T10:05:55.670Z,51.50
2019-05-30T10:07:58.988Z,51.20
2019-05-30T10:10:02.252Z,50.80
2019-05-30T10:12:05.570Z,50.80
2019-05-30T10:14:08.824Z,50.90
2019-05-30T10:18:10.557Z,50.90
2019-05-30T10:20:13.825Z,50.40
2019-05-30T10:22:17.113Z,51.00
2019-05-30T10:24:20.384Z,50.70
2019-05-30T10:26:23.646Z,50.60
2019-05-30T10:28:26.886Z,49.90
2019-05-30T10:30:30.246Z,50.00
2019-05-30T10:32:33.530Z,50.00
2019-05-30T10:34:36.792Z,49.90
2019-05-30T10:36:44.130Z,49.90
2019-05-30T10:38:45.434Z,49.60
2019-05-30T10:40:50.531Z,49.60
2019-05-30T10:42:55.113Z,49.30
2019-05-30T10:44:58.877Z,48.50
2019-05-30T10:47:02.158Z,47.80
2019-05-30T10:49:05.424Z,47.80
2019-05-30T10:51:08.717Z,47.30
2019-05-30T10:53:11.974Z,46.50
2019-05-30T10:55:15.302Z,46.80
2019-05-30T10:57:18.610Z,46.30
2019-05-30T10:59:21.873Z,45.60
2019-05-30T11:01:25.144Z,44.80
2019-05-30T11:03:28.408Z,45.10
2019-05-30T11:05:31.690Z,45.00
2019-05-30T11:07:55.017Z,45.30
2019-05-30T11:10:08.934Z,45.70
2019-05-30T11:12:12.361Z,44.60
2019-05-30T11:14:15.615Z,44.40
2019-05-30T11:16:18.878Z,43.70
2019-05-30T11:18:22.155Z,43.40
2019-05-30T11:20:25.415Z,42.50
2019-05-30T11:22:28.731Z,43.30
2019-05-30T11:24:32.084Z,42.90
2019-05-30T11:26:35.318Z,42.80
2019-05-30T11:28:38.600Z,42.40
2019-05-30T11:30:41.870Z,42.00
2019-05-30T11:32:45.120Z,41.70
2019-05-30T11:34:49.022Z,41.30
2019-05-30T11:36:53.066Z,41.70
2019-05-30T11:38:57.434Z,41.90
2019-05-30T11:41:00.847Z,40.80
2019-05-30T11:43:04.108Z,40.70
2019-05-30T11:45:07.735Z,40.30
2019-05-30T11:47:11.067Z,39.90
2019-05-30T11:49:14.350Z,39.60
2019-05-30T11:51:17.635Z,39.40
2019-05-30T11:53:20.958Z,39.70
2019-05-30T11:55:24.239Z,40.00
2019-05-30T11:57:27.504Z,40.40
2019-05-30T11:59:30.863Z,40.00
2019-05-30T12:01:34.138Z,40.10
2019-05-30T12:03:37.495Z,40.10
2019-05-30T12:05:40.775Z,40.00
2019-05-30T12:07:44.024Z,39.80
2019-05-30T12:09:47.289Z,39.70
2019-05-30T12:11:50.982Z,39.50
2019-05-30T12:13:55.164Z,38.80
2019-05-30T12:15:59.638Z,38.30
2019-05-30T12:18:03.063Z,38.40
2019-05-30T12:20:06.506Z,38.40
2019-05-30T12:22:09.804Z,38.60
2019-05-30T12:24:13.081Z,38.90
2019-05-30T12:26:16.385Z,39.10
2019-05-30T12:28:19.647Z,39.20
2019-05-30T12:30:22.937Z,39.40
2019-05-30T12:32:26.180Z,39.90
2019-05-30T12:34:29.417Z,40.20
2019-05-30T12:36:32.717Z,39.20
2019-05-30T12:38:35.963Z,39.30
2019-05-30T12:40:39.246Z,39.40
2019-05-30T12:42:42.581Z,39.50
2019-05-30T12:44:45.834Z,39.60
2019-05-30T12:46:49.113Z,40.50
2019-05-30T12:48:53.289Z,41.60
2019-05-30T12:50:57.229Z,40.50
2019-05-30T12:53:02.014Z,40.10
2019-05-30T12:55:09.493Z,40.10
2019-05-30T12:57:12.769Z,40.20
2019-05-30T12:59:16.041Z,40.30
2019-05-30T13:01:19.387Z,40.50
2019-05-30T13:03:22.641Z,40.50
2019-05-30T13:05:25.942Z,41.00
2019-05-30T13:07:29.286Z,41.40
2019-05-30T13:09:32.546Z,40.80
2019-05-30T13:11:36.193Z,40.50
2019-05-30T13:13:39.445Z,41.40
2019-05-30T13:15:42.717Z,41.50
2019-05-30T13:17:46.088Z,41.30
2019-05-30T13:19:49.341Z,41.50
2019-05-30T13:21:53.827Z,42.00
2019-05-30T13:23:57.970Z,41.60
2019-05-30T13:26:01.921Z,41.90
2019-05-30T13:28:08.131Z,41.60
2019-05-30T13:30:10.573Z,41.40
2019-05-30T13:32:13.851Z,41.30
2019-05-30T13:34:17.115Z,41.30
2019-05-30T13:36:20.430Z,41.80
2019-05-30T13:38:26.597Z,41.50
2019-05-30T13:40:28.658Z,41.70
2019-05-30T13:42:31.941Z,41.70
2019-05-30T13:44:35.188Z,41.50
2019-05-30T13:46:38.452Z,41.70
2019-05-30T13:48:41.723Z,41.10
2019-05-30T13:50:45.140Z,41.10
2019-05-30T13:52:48.420Z,41.50
2019-05-30T13:54:51.677Z,41.10
2019-05-30T13:56:54.922Z,40.60
2019-05-30T13:58:58.214Z,40.60
2019-05-30T14:01:06.090Z,40.30
2019-05-30T14:03:06.560Z,40.10
2019-05-30T14:05:10.637Z,40.10
2019-05-30T14:07:14.013Z,39.60
2019-05-30T14:09:17.294Z,39.40
2019-05-30T14:11:20.681Z,38.60
2019-05-30T14:13:24.001Z,38.50
2019-05-30T14:15:27.306Z,38.10
2019-05-30T14:17:30.555Z,38.30
2019-05-30T14:19:33.838Z,37.90
2019-05-30T14:21:37.070Z,38.20
2019-05-30T14:23:40.337Z,37.50
2019-05-30T14:25:43.590Z,37.30
2019-05-30T14:27:46.848Z,37.80
2019-05-30T14:29:50.125Z,37.10
2019-05-30T14:31:53.404Z,37.40
2019-05-30T14:33:56.665Z,37.50
2019-05-30T14:35:59.978Z,37.30
2019-05-30T14:38:04.588Z,37.60
2019-05-30T14:40:08.856Z,38.00
2019-05-30T14:42:13.248Z,40.00
2019-05-30T14:44:16.672Z,39.00
2019-05-30T14:46:19.958Z,38.50
2019-05-30T14:48:23.228Z,38.40
2019-05-30T14:50:26.504Z,39.00
2019-05-30T14:52:29.782Z,38.90
2019-05-30T14:54:33.089Z,38.70
2019-05-30T14:56:36.345Z,38.70
2019-05-30T14:58:39.599Z,38.90
2019-05-30T15:00:42.976Z,38.60
2019-05-30T15:02:46.252Z,38.60
2019-05-30T15:04:49.524Z,38.80
2019-05-30T15:06:52.801Z,38.30
2019-05-30T15:08:56.066Z,38.20
2019-05-30T15:10:59.339Z,39.10
2019-05-30T15:13:02.610Z,39.10
2019-05-30T15:15:07.912Z,39.00
2019-05-30T15:17:12.150Z,38.40
2019-05-30T15:19:16.527Z,39.20
2019-05-30T15:21:19.937Z,38.60
2019-05-30T15:23:23.210Z,39.10
2019-05-30T15:25:26.490Z,38.90
2019-05-30T15:27:29.748Z,38.80
2019-05-30T15:29:33.022Z,40.00
2019-05-30T15:31:36.370Z,39.40
2019-05-30T15:33:39.719Z,39.40
2019-05-30T15:35:42.964Z,39.60
2019-05-30T15:37:46.225Z,39.80
2019-05-30T15:39:49.495Z,39.70
2019-05-30T15:41:52.779Z,40.20
2019-05-30T15:43:56.050Z,40.00
2019-05-30T15:45:59.326Z,40.20
2019-05-30T15:48:02.604Z,40.20
2019-05-30T15:50:08.166Z,40.50
2019-05-30T15:52:13.277Z,40.80
2019-05-30T15:54:17.104Z,40.70
2019-05-30T15:56:20.462Z,41.20
2019-05-30T15:58:23.729Z,41.50
2019-05-30T16:00:26.996Z,41.40
2019-05-30T16:02:30.264Z,41.10
2019-05-30T16:04:33.514Z,41.00
2019-05-30T16:06:36.783Z,40.70
2019-05-30T16:08:40.033Z,40.70
2019-05-30T16:10:43.318Z,40.60
2019-05-30T16:12:46.667Z,40.50
2019-05-30T16:14:49.974Z,40.40
2019-05-30T16:16:53.281Z,40.70
2019-05-30T16:18:56.547Z,41.40
2019-05-30T16:20:59.793Z,40.70
2019-05-30T16:23:03.124Z,41.00
2019-05-30T16:25:06.670Z,41.00
2019-05-30T16:27:09.999Z,41.00
2019-05-30T16:29:13.655Z,41.60
2019-05-30T16:31:17.805Z,41.50
2019-05-30T16:33:22.154Z,41.60
2019-05-30T16:35:26.483Z,42.10
2019-05-30T16:37:29.923Z,41.80
2019-05-30T16:39:33.173Z,41.70
2019-05-30T16:41:36.547Z,41.90
2019-05-30T16:43:39.835Z,42.80
2019-05-30T16:45:43.141Z,42.50
2019-05-30T16:47:49.150Z,42.40
2019-05-30T16:49:51.494Z,42.40
2019-05-30T16:51:54.805Z,42.00
2019-05-30T16:53:58.115Z,42.00
2019-05-30T16:56:01.393Z,42.10
2019-05-30T16:58:05.026Z,42.20
2019-05-30T17:00:10.868Z,42.10
2019-05-30T17:02:14.784Z,42.20
2019-05-30T17:04:18.889Z,42.40
2019-05-30T17:06:22.291Z,43.00
2019-05-30T17:08:26.338Z,43.70
2019-05-30T17:10:33.117Z,43.50
2019-05-30T17:12:34.965Z,43.50
2019-05-30T17:14:38.241Z,43.20
2019-05-30T17:16:41.554Z,43.00
2019-05-30T17:18:44.859Z,43.40
2019-05-30T17:20:49.053Z,43.10
2019-05-30T17:22:52.330Z,43.40
2019-05-30T17:24:55.618Z,43.90
2019-05-30T17:26:58.885Z,43.40
2019-05-30T17:29:02.183Z,43.90
2019-05-30T17:31:05.594Z,44.20
2019-05-30T17:33:08.910Z,44.80
2019-05-30T17:35:12.194Z,44.40
2019-05-30T17:37:15.528Z,44.10
2019-05-30T17:39:18.963Z,43.90
2019-05-30T17:41:22.732Z,44.00
2019-05-30T17:43:27.139Z,45.00
2019-05-30T17:45:30.505Z,45.40
2019-05-30T17:47:33.749Z,45.70
2019-05-30T17:49:37.047Z,45.70
2019-05-30T17:51:40.313Z,45.70
2019-05-30T17:53:43.621Z,46.20
2019-05-30T17:55:46.888Z,46.50
2019-05-30T17:57:50.434Z,46.90
2019-05-30T17:59:53.755Z,47.30
2019-05-30T18:01:57.075Z,46.60
2019-05-30T18:04:00.347Z,46.90
2019-05-30T18:06:03.608Z,47.30
2019-05-30T18:08:06.879Z,47.40
2019-05-30T18:10:10.245Z,47.80
2019-05-30T18:12:13.583Z,48.20
2019-05-30T18:14:16.951Z,48.20
2019-05-30T18:16:21.071Z,48.70
2019-05-30T18:18:25.334Z,48.70
2019-05-30T18:20:29.393Z,48.50
2019-05-30T18:22:32.784Z,48.90
2019-05-30T18:24:36.143Z,49.10
2019-05-30T18:26:39.456Z,49.10
2019-05-30T18:28:42.790Z,49.10
2019-05-30T18:30:46.110Z,49.30
2019-05-30T18:32:49.484Z,49.40
2019-05-30T18:34:52.836Z,49.80
2019-05-30T18:36:56.087Z,50.10
2019-05-30T18:38:59.354Z,50.20
2019-05-30T18:41:11.267Z,50.50
2019-05-30T18:43:07.757Z,50.60
2019-05-30T18:45:11.084Z,50.70
2019-05-30T18:47:14.494Z,50.80
2019-05-30T18:49:17.817Z,51.00
2019-05-30T18:51:21.110Z,51.00
2019-05-30T18:53:24.416Z,51.20
2019-05-30T18:55:28.550Z,51.30
2019-05-30T18:57:32.889Z,51.40
2019-05-30T18:59:37.297Z,51.30
2019-05-30T19:01:40.910Z,51.50
2019-05-30T19:03:44.154Z,51.70
2019-05-30T19:05:48.545Z,51.80
2019-05-30T19:07:52.074Z,51.70
2019-05-30T19:09:55.400Z,51.70
2019-05-30T19:11:58.679Z,52.00
2019-05-30T19:14:01.968Z,52.30
2019-05-30T19:16:05.383Z,52.20
2019-05-30T19:18:09.389Z,52.40
2019-05-30T19:20:12.910Z,52.60
2019-05-30T19:22:16.247Z,52.80
2019-05-30T19:24:19.570Z,52.70
2019-05-30T19:26:22.913Z,52.70
2019-05-30T19:28:26.435Z,53.00
2019-05-30T19:30:30.624Z,53.10
2019-05-30T19:32:35.057Z,53.10
2019-05-30T19:34:38.476Z,53.20
2019-05-30T19:36:41.769Z,53.30
2019-05-30T19:38:45.037Z,53.20
2019-05-30T19:40:48.320Z,53.40
2019-05-30T19:42:51.685Z,53.60
2019-05-30T19:44:55.021Z,53.50
2019-05-30T19:46:58.330Z,53.70
2019-05-30T19:49:01.627Z,53.50
2019-05-30T19:51:05.102Z,53.80
2019-05-30T19:53:08.407Z,53.90
2019-05-30T19:55:12.851Z,54.00
2019-05-30T19:57:16.128Z,54.60
2019-05-30T19:59:19.435Z,54.20
2019-05-30T20:01:22.717Z,54.40
2019-05-30T20:03:36.439Z,54.40
2019-05-30T20:05:30.957Z,54.30
2019-05-30T20:07:34.608Z,54.40
2019-05-30T20:09:38.641Z,54.70
2019-05-30T20:11:42.146Z,54.70
2019-05-30T20:13:45.482Z,54.90
2019-05-30T20:15:48.783Z,55.30
2019-05-30T20:17:52.313Z,55.00
2019-05-30T20:19:55.628Z,55.20
2019-05-30T20:21:58.956Z,55.10
2019-05-30T20:24:02.334Z,55.40
2019-05-30T20:26:05.684Z,55.60
2019-05-30T20:28:08.974Z,55.60
2019-05-30T20:30:14.087Z,55.60
2019-05-30T20:32:17.360Z,55.70
2019-05-30T20:34:20.661Z,55.80
2019-05-30T20:36:24.121Z,55.90
2019-05-30T20:38:27.480Z,56.10
2019-05-30T20:40:30.900Z,56.30
2019-05-30T20:42:34.675Z,56.20
2019-05-30T20:44:38.869Z,56.20
2019-05-30T20:46:43.276Z,56.30
2019-05-30T20:48:47.697Z,56.30
2019-05-30T20:50:51.245Z,56.40
2019-05-30T20:52:54.669Z,56.50
2019-05-30T20:54:57.990Z,56.60
2019-05-30T20:57:01.386Z,56.70
2019-05-30T20:59:04.700Z,56.80
2019-05-30T21:01:07.961Z,56.90
2019-05-30T21:03:11.230Z,57.10
2019-05-30T21:05:14.543Z,56.90
2019-05-30T21:07:18.124Z,57.60
2019-05-30T21:09:28.893Z,57.10
2019-05-30T21:11:26.960Z,57.00
2019-05-30T21:13:31.057Z,57.20
2019-05-30T21:15:35.279Z,57.30
2019-05-30T21:17:39.726Z,57.30
2019-05-30T21:19:44.037Z,57.50
2019-05-30T21:21:47.411Z,57.60
2019-05-30T21:23:50.823Z,57.60
2019-05-30T21:25:54.200Z,57.80
2019-05-30T21:27:57.469Z,57.70
2019-05-30T21:30:00.745Z,58.00
2019-05-30T21:32:04.061Z,58.00
2019-05-30T21:34:07.378Z,58.20
2019-05-30T21:36:10.653Z,58.30
2019-05-30T21:38:14.000Z,58.30
2019-05-30T21:40:17.276Z,58.50
2019-05-30T21:42:20.652Z,58.80
2019-05-30T21:44:23.925Z,58.60
2019-05-30T21:46:27.277Z,58.70
2019-05-30T21:48:30.547Z,58.80
2019-05-30T21:50:33.811Z,59.00
2019-05-30T21:52:37.088Z,58.90
2019-05-30T21:54:41.548Z,59.00
2019-05-30T21:56:46.019Z,59.00
2019-05-30T21:58:50.437Z,59.20
2019-05-30T22:01:18.416Z,59.10
2019-05-30T22:03:21.705Z,59.10
2019-05-30T22:05:25.055Z,59.10
2019-05-30T22:07:28.352Z,59.20
2019-05-30T22:09:31.600Z,59.40
2019-05-30T22:11:34.917Z,59.60
2019-05-30T22:13:38.260Z,59.70
2019-05-30T22:15:41.707Z,59.70
2019-05-30T22:17:45.738Z,59.70
2019-05-30T22:19:50.014Z,59.90
2019-05-30T22:21:53.335Z,59.90
2019-05-30T22:23:56.591Z,60.00
2019-05-30T22:25:59.846Z,60.00
2019-05-30T22:28:03.132Z,60.00
2019-05-30T22:30:06.402Z,60.10
2019-05-30T22:32:09.707Z,60.20
2019-05-30T22:34:12.987Z,60.40
2019-05-30T22:36:16.307Z,60.40
2019-05-30T22:38:19.579Z,60.60
2019-05-30T22:40:22.840Z,60.70
2019-05-30T22:42:26.186Z,60.80
2019-05-30T22:44:29.472Z,60.90
2019-05-30T22:46:32.782Z,60.90
2019-05-30T22:48:36.066Z,61.00
2019-05-30T22:50:39.329Z,61.20
2019-05-30T22:52:42.558Z,61.30
2019-05-30T22:54:47.003Z,61.20
2019-05-30T22:56:51.440Z,61.40
2019-05-30T22:58:55.789Z,61.50
2019-05-30T23:00:59.161Z,61.60
2019-05-30T23:03:02.423Z,61.60
2019-05-30T23:05:06.614Z,61.70
2019-05-30T23:07:09.858Z,62.00
2019-05-30T23:09:13.122Z,62.00
2019-05-30T23:11:16.400Z,62.10
2019-05-30T23:13:19.643Z,62.20
2019-05-30T23:15:22.954Z,62.20
2019-05-30T23:17:26.209Z,62.20
2019-05-30T23:19:29.514Z,62.20
2019-05-30T23:21:32.757Z,62.30
2019-05-30T23:23:36.006Z,62.80
2019-05-30T23:25:39.278Z,62.60
2019-05-30T23:27:42.758Z,62.70
2019-05-30T23:29:46.157Z,62.80
2019-05-30T23:31:49.910Z,62.80
2019-05-30T23:33:54.467Z,63.00
2019-05-30T23:35:58.573Z,63.10
2019-05-30T23:38:01.950Z,63.10
2019-05-30T23:40:06.864Z,63.20
2019-05-30T23:42:10.105Z,63.20
2019-05-30T23:44:13.834Z,63.20
2019-05-30T23:46:17.085Z,63.40
2019-05-30T23:48:20.341Z,63.40
2019-05-30T23:50:23.643Z,63.50
2019-05-30T23:52:26.889Z,63.50
2019-05-30T23:54:30.174Z,63.50
2019-05-30T23:56:33.494Z,63.50
2019-05-30T23:58:36.803Z,63.70
